sensor_id;sensor_type;location;lat;lon;timestamp;pressure;altitude;pressure_sealevel;temperature;humidity
29121;BME280;16191;49.548;8.658;2023-01-29T00:02:08;101681.25;;;0.26;86.05
29121;BME280;16191;49.548;8.658;2023-01-29T00:04:35;101688.22;;;0.30;85.79
29121;BME280;16191;49.548;8.658;2023-01-29T00:07:02;101679.72;;;0.32;86.38
29121;BME280;16191;49.548;8.658;2023-01-29T00:09:29;101685.75;;;0.34;87.13
29121;BME280;16191;49.548;8.658;2023-01-29T00:11:57;101680.47;;;0.28;86.19
29121;BME280;16191;49.548;8.658;2023-01-29T00:14:24;101676.88;;;0.20;87.42
29121;BME280;16191;49.548;8.658;2023-01-29T00:16:53;101677.66;;;0.18;87.75
29121;BME280;16191;49.548;8.658;2023-01-29T00:19:20;101674.28;;;0.19;86.30
29121;BME280;16191;49.548;8.658;2023-01-29T00:21:46;101676.69;;;0.13;86.93
29121;BME280;16191;49.548;8.658;2023-01-29T00:24:13;101672.53;;;0.18;86.39
29121;BME280;16191;49.548;8.658;2023-01-29T00:26:40;101686.56;;;-0.03;85.29
29121;BME280;16191;49.548;8.658;2023-01-29T00:29:09;101681.63;;;0.05;86.26
29121;BME280;16191;49.548;8.658;2023-01-29T00:31:36;101678.41;;;0.14;86.23
29121;BME280;16191;49.548;8.658;2023-01-29T00:34:05;101686.38;;;-0.10;86.66
29121;BME280;16191;49.548;8.658;2023-01-29T00:36:32;101684.09;;;0.02;86.83
29121;BME280;16191;49.548;8.658;2023-01-29T00:38:59;101691.78;;;0.02;86.92
29121;BME280;16191;49.548;8.658;2023-01-29T00:41:30;101675.72;;;0.09;86.82
29121;BME280;16191;49.548;8.658;2023-01-29T00:44:17;101678.28;;;0.09;86.40
29121;BME280;16191;49.548;8.658;2023-01-29T00:47:03;101678.22;;;0.06;86.49
29121;BME280;16191;49.548;8.658;2023-01-29T00:49:30;101682.28;;;-0.04;87.19
29121;BME280;16191;49.548;8.658;2023-01-29T00:51:57;101690.94;;;0.02;88.14
29121;BME280;16191;49.548;8.658;2023-01-29T00:54:43;101690.94;;;0.02;87.37
29121;BME280;16191;49.548;8.658;2023-01-29T00:57:10;101697.75;;;0.01;87.53
29121;BME280;16191;49.548;8.658;2023-01-29T00:59:37;101689.69;;;-0.14;87.39
29121;BME280;16191;49.548;8.658;2023-01-29T01:02:04;101700.06;;;-0.10;87.82
29121;BME280;16191;49.548;8.658;2023-01-29T01:04:49;101707.72;;;-0.11;88.15
29121;BME280;16191;49.548;8.658;2023-01-29T01:07:16;101703.72;;;-0.33;87.40
29121;BME280;16191;49.548;8.658;2023-01-29T01:09:42;101700.69;;;-0.18;87.77
29121;BME280;16191;49.548;8.658;2023-01-29T01:12:28;101700.97;;;-0.08;89.47
29121;BME280;16191;49.548;8.658;2023-01-29T01:14:56;101703.53;;;-0.08;88.72
29121;BME280;16191;49.548;8.658;2023-01-29T01:17:23;101698.16;;;-0.17;89.06
29121;BME280;16191;49.548;8.658;2023-01-29T01:19:50;101695.75;;;-0.11;89.69
29121;BME280;16191;49.548;8.658;2023-01-29T01:22:17;101696.88;;;0.00;89.39
29121;BME280;16191;49.548;8.658;2023-01-29T01:24:44;101697.19;;;-0.22;89.68
29121;BME280;16191;49.548;8.658;2023-01-29T01:27:11;101694.97;;;-0.08;90.64
29121;BME280;16191;49.548;8.658;2023-01-29T01:29:38;101693.53;;;0.03;89.77
29121;BME280;16191;49.548;8.658;2023-01-29T01:32:05;101692.38;;;-0.10;87.48
29121;BME280;16191;49.548;8.658;2023-01-29T01:34:32;101686.50;;;-0.06;89.45
29121;BME280;16191;49.548;8.658;2023-01-29T01:36:59;101680.16;;;-0.18;89.29
29121;BME280;16191;49.548;8.658;2023-01-29T01:39:26;101682.81;;;-0.15;90.84
29121;BME280;16191;49.548;8.658;2023-01-29T01:41:53;101695.47;;;-0.23;88.33
29121;BME280;16191;49.548;8.658;2023-01-29T01:44:52;101686.94;;;-0.22;89.39
29121;BME280;16191;49.548;8.658;2023-01-29T01:47:23;101683.06;;;-0.06;89.51
29121;BME280;16191;49.548;8.658;2023-01-29T01:49:53;101686.53;;;-0.04;88.54
29121;BME280;16191;49.548;8.658;2023-01-29T01:52:20;101688.22;;;-0.05;87.92
29121;BME280;16191;49.548;8.658;2023-01-29T01:55:08;101686.25;;;-0.15;87.12
29121;BME280;16191;49.548;8.658;2023-01-29T01:58:03;101676.81;;;-0.16;89.52
29121;BME280;16191;49.548;8.658;2023-01-29T02:00:52;101683.88;;;-0.07;89.59
29121;BME280;16191;49.548;8.658;2023-01-29T02:03:48;101684.84;;;-0.04;89.04
29121;BME280;16191;49.548;8.658;2023-01-29T02:06:55;101679.50;;;-0.11;90.15
29121;BME280;16191;49.548;8.658;2023-01-29T02:10:09;101664.19;;;-0.08;89.75
29121;BME280;16191;49.548;8.658;2023-01-29T02:12:38;101673.47;;;-0.13;89.13
29121;BME280;16191;49.548;8.658;2023-01-29T02:15:06;101672.50;;;-0.17;89.14
29121;BME280;16191;49.548;8.658;2023-01-29T02:17:33;101669.06;;;-0.17;89.48
29121;BME280;16191;49.548;8.658;2023-01-29T02:28:50;101648.47;;;-0.22;90.49
29121;BME280;16191;49.548;8.658;2023-01-29T02:31:23;101652.84;;;-0.16;89.57
29121;BME280;16191;49.548;8.658;2023-01-29T02:36:37;101639.66;;;-0.31;88.32
29121;BME280;16191;49.548;8.658;2023-01-29T02:42:37;101648.16;;;-0.32;90.23
29121;BME280;16191;49.548;8.658;2023-01-29T02:45:15;101637.88;;;-0.34;89.75
29121;BME280;16191;49.548;8.658;2023-01-29T02:47:56;101637.97;;;-0.31;89.22
29121;BME280;16191;49.548;8.658;2023-01-29T02:50:47;101634.34;;;-0.38;88.79
29121;BME280;16191;49.548;8.658;2023-01-29T02:53:40;101633.41;;;-0.41;89.30
29121;BME280;16191;49.548;8.658;2023-01-29T02:56:18;101641.25;;;-0.35;88.91
29121;BME280;16191;49.548;8.658;2023-01-29T02:58:51;101642.00;;;-0.39;89.21
29121;BME280;16191;49.548;8.658;2023-01-29T03:01:28;101652.03;;;-0.48;89.55
29121;BME280;16191;49.548;8.658;2023-01-29T03:04:03;101641.91;;;-0.44;90.80
29121;BME280;16191;49.548;8.658;2023-01-29T03:06:36;101646.16;;;-0.44;90.59
29121;BME280;16191;49.548;8.658;2023-01-29T03:09:10;101656.34;;;-0.47;90.84
29121;BME280;16191;49.548;8.658;2023-01-29T03:11:42;101648.75;;;-0.44;90.57
29121;BME280;16191;49.548;8.658;2023-01-29T03:14:16;101658.03;;;-0.48;90.38
29121;BME280;16191;49.548;8.658;2023-01-29T03:16:49;101654.31;;;-0.59;91.37
29121;BME280;16191;49.548;8.658;2023-01-29T03:19:34;101660.25;;;-0.60;92.48
29121;BME280;16191;49.548;8.658;2023-01-29T03:22:12;101660.13;;;-0.64;94.07
29121;BME280;16191;49.548;8.658;2023-01-29T03:24:55;101658.56;;;-0.59;94.71
29121;BME280;16191;49.548;8.658;2023-01-29T03:27:59;101667.88;;;-0.63;96.38
29121;BME280;16191;49.548;8.658;2023-01-29T03:30:53;101672.66;;;-0.75;97.00
29121;BME280;16191;49.548;8.658;2023-01-29T03:36:20;101676.28;;;-0.68;99.21
29121;BME280;16191;49.548;8.658;2023-01-29T03:38:48;101682.13;;;-0.73;99.23
29121;BME280;16191;49.548;8.658;2023-01-29T03:41:27;101680.53;;;-0.69;99.62
29121;BME280;16191;49.548;8.658;2023-01-29T03:44:24;101679.63;;;-0.71;100.00
29121;BME280;16191;49.548;8.658;2023-01-29T03:52:20;101672.72;;;-0.74;100.00
29121;BME280;16191;49.548;8.658;2023-01-29T03:55:14;101676.06;;;-0.76;100.00
29121;BME280;16191;49.548;8.658;2023-01-29T03:57:59;101675.31;;;-0.72;100.00
29121;BME280;16191;49.548;8.658;2023-01-29T04:00:37;101678.56;;;-0.78;100.00
29121;BME280;16191;49.548;8.658;2023-01-29T04:03:20;101683.75;;;-0.76;100.00
29121;BME280;16191;49.548;8.658;2023-01-29T04:08:55;101692.25;;;-0.77;100.00
29121;BME280;16191;49.548;8.658;2023-01-29T04:11:27;101691.53;;;-0.73;100.00
29121;BME280;16191;49.548;8.658;2023-01-29T04:13:56;101688.13;;;-0.72;100.00
29121;BME280;16191;49.548;8.658;2023-01-29T04:16:28;101689.56;;;-0.82;100.00
29121;BME280;16191;49.548;8.658;2023-01-29T04:19:11;101685.34;;;-0.80;100.00
29121;BME280;16191;49.548;8.658;2023-01-29T04:21:40;101684.28;;;-0.88;100.00
29121;BME280;16191;49.548;8.658;2023-01-29T04:24:08;101678.97;;;-0.94;100.00
29121;BME280;16191;49.548;8.658;2023-01-29T04:27:19;101665.19;;;-0.97;98.91
29121;BME280;16191;49.548;8.658;2023-01-29T04:29:57;101665.63;;;-0.82;98.89
29121;BME280;16191;49.548;8.658;2023-01-29T04:35:31;101676.09;;;-0.75;96.85
29121;BME280;16191;49.548;8.658;2023-01-29T04:38:11;101679.53;;;-0.74;96.17
29121;BME280;16191;49.548;8.658;2023-01-29T04:41:26;101684.66;;;-0.74;96.42
29121;BME280;16191;49.548;8.658;2023-01-29T04:43:46;101682.22;;;-0.70;96.85
29121;BME280;16191;49.548;8.658;2023-01-29T04:49:43;101662.09;;;-0.86;98.60
29121;BME280;16191;49.548;8.658;2023-01-29T04:54:50;101645.56;;;-0.97;98.94
29121;BME280;16191;49.548;8.658;2023-01-29T04:57:27;101635.56;;;-0.89;98.67
29121;BME280;16191;49.548;8.658;2023-01-29T05:00:07;101627.09;;;-0.85;98.16
29121;BME280;16191;49.548;8.658;2023-01-29T05:02:39;101633.84;;;-0.89;98.02
29121;BME280;16191;49.548;8.658;2023-01-29T05:05:08;101641.50;;;-0.90;98.20
29121;BME280;16191;49.548;8.658;2023-01-29T05:07:37;101644.00;;;-0.92;98.06
29121;BME280;16191;49.548;8.658;2023-01-29T05:10:06;101627.09;;;-0.87;97.81
29121;BME280;16191;49.548;8.658;2023-01-29T05:12:35;101625.03;;;-0.98;97.86
29121;BME280;16191;49.548;8.658;2023-01-29T05:15:04;101641.13;;;-1.02;99.21
29121;BME280;16191;49.548;8.658;2023-01-29T05:17:33;101640.25;;;-1.03;100.00
29121;BME280;16191;49.548;8.658;2023-01-29T05:20:00;101639.50;;;-1.00;100.00
29121;BME280;16191;49.548;8.658;2023-01-29T05:22:27;101650.66;;;-0.98;100.00
29121;BME280;16191;49.548;8.658;2023-01-29T05:24:54;101657.47;;;-0.99;100.00
29121;BME280;16191;49.548;8.658;2023-01-29T05:27:29;101659.03;;;-1.04;100.00
29121;BME280;16191;49.548;8.658;2023-01-29T05:30:16;101664.91;;;-1.07;100.00
29121;BME280;16191;49.548;8.658;2023-01-29T05:32:43;101672.00;;;-0.98;100.00
29121;BME280;16191;49.548;8.658;2023-01-29T05:35:10;101670.97;;;-1.05;100.00
29121;BME280;16191;49.548;8.658;2023-01-29T05:37:37;101667.63;;;-1.02;100.00
29121;BME280;16191;49.548;8.658;2023-01-29T05:40:04;101673.72;;;-0.98;100.00
29121;BME280;16191;49.548;8.658;2023-01-29T05:42:34;101678.06;;;-0.96;100.00
29121;BME280;16191;49.548;8.658;2023-01-29T05:45:01;101665.97;;;-1.00;100.00
29121;BME280;16191;49.548;8.658;2023-01-29T05:47:28;101663.94;;;-1.12;100.00
29121;BME280;16191;49.548;8.658;2023-01-29T05:49:55;101659.94;;;-1.02;100.00
29121;BME280;16191;49.548;8.658;2023-01-29T05:52:21;101658.16;;;-1.05;100.00
29121;BME280;16191;49.548;8.658;2023-01-29T05:54:48;101657.13;;;-1.11;100.00
29121;BME280;16191;49.548;8.658;2023-01-29T05:57:15;101658.81;;;-1.12;100.00
29121;BME280;16191;49.548;8.658;2023-01-29T05:59:41;101654.47;;;-1.14;100.00
29121;BME280;16191;49.548;8.658;2023-01-29T06:02:08;101652.94;;;-1.08;100.00
29121;BME280;16191;49.548;8.658;2023-01-29T06:04:35;101653.91;;;-1.04;100.00
29121;BME280;16191;49.548;8.658;2023-01-29T06:07:02;101648.66;;;-1.09;100.00
29121;BME280;16191;49.548;8.658;2023-01-29T06:09:30;101648.28;;;-1.21;99.83
29121;BME280;16191;49.548;8.658;2023-01-29T06:11:56;101651.78;;;-1.19;100.00
29121;BME280;16191;49.548;8.658;2023-01-29T06:14:23;101662.94;;;-1.17;99.87
29121;BME280;16191;49.548;8.658;2023-01-29T06:16:50;101668.84;;;-1.19;99.54
29121;BME280;16191;49.548;8.658;2023-01-29T06:19:16;101673.00;;;-1.23;99.21
29121;BME280;16191;49.548;8.658;2023-01-29T06:21:43;101677.38;;;-1.19;99.97
29121;BME280;16191;49.548;8.658;2023-01-29T06:24:10;101676.38;;;-1.24;100.00
29121;BME280;16191;49.548;8.658;2023-01-29T06:26:37;101673.28;;;-1.14;100.00
29121;BME280;16191;49.548;8.658;2023-01-29T06:29:04;101670.47;;;-1.21;100.00
29121;BME280;16191;49.548;8.658;2023-01-29T06:31:30;101669.56;;;-1.23;100.00
29121;BME280;16191;49.548;8.658;2023-01-29T06:34:06;101662.06;;;-1.17;100.00
29121;BME280;16191;49.548;8.658;2023-01-29T06:36:33;101664.59;;;-1.19;100.00
29121;BME280;16191;49.548;8.658;2023-01-29T06:39:00;101653.31;;;-1.24;100.00
29121;BME280;16191;49.548;8.658;2023-01-29T06:41:27;101653.31;;;-1.24;100.00
29121;BME280;16191;49.548;8.658;2023-01-29T06:43:54;101645.34;;;-1.34;100.00
29121;BME280;16191;49.548;8.658;2023-01-29T06:46:21;101643.81;;;-1.28;100.00
29121;BME280;16191;49.548;8.658;2023-01-29T06:48:47;101644.63;;;-1.30;100.00
29121;BME280;16191;49.548;8.658;2023-01-29T06:51:14;101641.13;;;-1.32;100.00
29121;BME280;16191;49.548;8.658;2023-01-29T06:53:41;101646.16;;;-1.35;100.00
29121;BME280;16191;49.548;8.658;2023-01-29T06:56:11;101647.53;;;-1.18;100.00
29121;BME280;16191;49.548;8.658;2023-01-29T06:58:38;101650.13;;;-1.17;100.00
29121;BME280;16191;49.548;8.658;2023-01-29T07:01:10;101662.06;;;-1.17;100.00
29121;BME280;16191;49.548;8.658;2023-01-29T07:03:51;101659.50;;;-1.17;100.00
29121;BME280;16191;49.548;8.658;2023-01-29T07:06:18;101666.13;;;-1.24;100.00
29121;BME280;16191;49.548;8.658;2023-01-29T07:08:45;101670.28;;;-1.27;100.00
29121;BME280;16191;49.548;8.658;2023-01-29T07:11:11;101665.78;;;-1.36;100.00
29121;BME280;16191;49.548;8.658;2023-01-29T07:13:38;101666.94;;;-1.25;100.00
29121;BME280;16191;49.548;8.658;2023-01-29T07:16:05;101661.72;;;-1.28;100.00
29121;BME280;16191;49.548;8.658;2023-01-29T07:18:33;101664.34;;;-1.26;100.00
29121;BME280;16191;49.548;8.658;2023-01-29T07:21:03;101660.13;;;-1.24;100.00
29121;BME280;16191;49.548;8.658;2023-01-29T07:23:31;101658.31;;;-1.28;100.00
29121;BME280;16191;49.548;8.658;2023-01-29T07:26:02;101662.06;;;-1.17;100.00
29121;BME280;16191;49.548;8.658;2023-01-29T07:28:29;101657.19;;;-1.10;100.00
29121;BME280;16191;49.548;8.658;2023-01-29T07:30:59;101652.06;;;-1.08;100.00
29121;BME280;16191;49.548;8.658;2023-01-29T07:33:26;101660.56;;;-1.11;100.00
29121;BME280;16191;49.548;8.658;2023-01-29T07:35:52;101667.41;;;-1.10;100.00
29121;BME280;16191;49.548;8.658;2023-01-29T07:38:23;101667.97;;;-1.20;100.00
29121;BME280;16191;49.548;8.658;2023-01-29T07:40:53;101670.75;;;-1.12;100.00
29121;BME280;16191;49.548;8.658;2023-01-29T07:43:20;101673.31;;;-1.12;100.00
29121;BME280;16191;49.548;8.658;2023-01-29T07:45:46;101672.91;;;-1.26;100.00
29121;BME280;16191;49.548;8.658;2023-01-29T07:48:13;101675.78;;;-1.15;100.00
29121;BME280;16191;49.548;8.658;2023-01-29T07:50:40;101675.50;;;-1.24;100.00
29121;BME280;16191;49.548;8.658;2023-01-29T07:53:14;101681.34;;;-1.30;100.00
29121;BME280;16191;49.548;8.658;2023-01-29T07:55:44;101690.97;;;-1.21;100.00
29121;BME280;16191;49.548;8.658;2023-01-29T07:58:11;101692.66;;;-1.22;100.00
29121;BME280;16191;49.548;8.658;2023-01-29T08:00:38;101688.31;;;-1.24;100.00
29121;BME280;16191;49.548;8.658;2023-01-29T08:03:11;101688.66;;;-1.14;100.00
29121;BME280;16191;49.548;8.658;2023-01-29T08:05:38;101693.06;;;-1.08;100.00
29121;BME280;16191;49.548;8.658;2023-01-29T08:08:05;101697.28;;;-1.10;100.00
29121;BME280;16191;49.548;8.658;2023-01-29T08:10:35;101703.09;;;-1.16;100.00
29121;BME280;16191;49.548;8.658;2023-01-29T08:13:02;101693.97;;;-1.06;100.00
29121;BME280;16191;49.548;8.658;2023-01-29T08:15:30;101698.56;;;-0.96;100.00
29121;BME280;16191;49.548;8.658;2023-01-29T08:17:57;101687.47;;;-0.95;100.00
29121;BME280;16191;49.548;8.658;2023-01-29T08:20:24;101696.94;;;-0.92;100.00
29121;BME280;16191;49.548;8.658;2023-01-29T08:23:06;101687.72;;;-0.87;100.00
29121;BME280;16191;49.548;8.658;2023-01-29T08:25:34;101695.03;;;-0.70;100.00
29121;BME280;16191;49.548;8.658;2023-01-29T08:28:02;101687.72;;;-0.56;100.00
29121;BME280;16191;49.548;8.658;2023-01-29T08:30:31;101696.03;;;-0.33;99.02
29121;BME280;16191;49.548;8.658;2023-01-29T08:32:59;101701.84;;;-0.39;97.25
29121;BME280;16191;49.548;8.658;2023-01-29T08:35:26;101700.06;;;-0.41;97.02
29121;BME280;16191;49.548;8.658;2023-01-29T08:37:54;101706.84;;;-0.43;97.14
29121;BME280;16191;49.548;8.658;2023-01-29T08:40:22;101712.41;;;-0.28;96.08
29121;BME280;16191;49.548;8.658;2023-01-29T08:42:49;101716.13;;;-0.17;94.93
29121;BME280;16191;49.548;8.658;2023-01-29T08:45:15;101721.28;;;-0.15;93.70
29121;BME280;16191;49.548;8.658;2023-01-29T08:47:48;101727.41;;;-0.10;93.66
29121;BME280;16191;49.548;8.658;2023-01-29T08:50:16;101731.03;;;-0.04;92.87
29121;BME280;16191;49.548;8.658;2023-01-29T08:52:44;101731.56;;;0.18;91.26
29121;BME280;16191;49.548;8.658;2023-01-29T08:55:13;101719.22;;;0.38;87.93
29121;BME280;16191;49.548;8.658;2023-01-29T08:57:41;101693.44;;;0.71;86.42
29121;BME280;16191;49.548;8.658;2023-01-29T09:00:08;101685.09;;;0.81;85.13
29121;BME280;16191;49.548;8.658;2023-01-29T09:02:36;101665.91;;;1.04;83.08
29121;BME280;16191;49.548;8.658;2023-01-29T09:05:03;101653.94;;;1.06;83.13
29121;BME280;16191;49.548;8.658;2023-01-29T09:07:31;101654.31;;;1.24;81.88
29121;BME280;16191;49.548;8.658;2023-01-29T09:09:57;101634.19;;;1.47;80.86
29121;BME280;16191;49.548;8.658;2023-01-29T09:12:24;101643.31;;;1.33;79.68
29121;BME280;16191;49.548;8.658;2023-01-29T09:14:51;101634.31;;;1.11;81.10
29121;BME280;16191;49.548;8.658;2023-01-29T09:17:18;101639.84;;;1.31;80.03
29121;BME280;16191;49.548;8.658;2023-01-29T09:19:44;101645.03;;;1.32;78.47
29121;BME280;16191;49.548;8.658;2023-01-29T09:22:11;101650.13;;;1.31;78.62
29121;BME280;16191;49.548;8.658;2023-01-29T09:24:40;101655.19;;;1.25;79.30
29121;BME280;16191;49.548;8.658;2023-01-29T09:27:06;101668.91;;;0.83;80.61
29121;BME280;16191;49.548;8.658;2023-01-29T09:29:33;101659.38;;;0.79;81.68
29121;BME280;16191;49.548;8.658;2023-01-29T09:32:02;101663.22;;;0.99;81.66
29121;BME280;16191;49.548;8.658;2023-01-29T09:34:29;101680.44;;;1.46;80.16
29121;BME280;16191;49.548;8.658;2023-01-29T09:36:56;101676.22;;;1.49;78.84
29121;BME280;16191;49.548;8.658;2023-01-29T09:39:22;101684.06;;;1.57;77.78
29121;BME280;16191;49.548;8.658;2023-01-29T09:42:02;101681.50;;;1.57;78.08
29121;BME280;16191;49.548;8.658;2023-01-29T09:47:17;101685.25;;;0.88;82.47
29121;BME280;16191;49.548;8.658;2023-01-29T09:49:51;101678.16;;;1.17;81.03
29121;BME280;16191;49.548;8.658;2023-01-29T09:52:29;101688.56;;;1.23;81.37
29121;BME280;16191;49.548;8.658;2023-01-29T09:55:06;101696.31;;;1.25;81.63
29121;BME280;16191;49.548;8.658;2023-01-29T09:57:51;101698.34;;;0.99;81.71
29121;BME280;16191;49.548;8.658;2023-01-29T10:00:36;101709.94;;;1.21;81.40
29121;BME280;16191;49.548;8.658;2023-01-29T10:03:16;101717.25;;;1.01;81.50
29121;BME280;16191;49.548;8.658;2023-01-29T10:05:49;101710.31;;;0.59;83.55
29121;BME280;16191;49.548;8.658;2023-01-29T10:11:44;101720.03;;;0.73;83.20
29121;BME280;16191;49.548;8.658;2023-01-29T10:20:28;101713.56;;;0.90;84.57
29121;BME280;16191;49.548;8.658;2023-01-29T10:23:28;101699.03;;;0.92;83.94
29121;BME280;16191;49.548;8.658;2023-01-29T10:25:58;101703.75;;;1.13;82.76
29121;BME280;16191;49.548;8.658;2023-01-29T10:28:30;101698.78;;;0.80;81.33
29121;BME280;16191;49.548;8.658;2023-01-29T10:31:11;101702.09;;;0.74;82.90
29121;BME280;16191;49.548;8.658;2023-01-29T10:33:44;101689.72;;;0.97;83.00
29121;BME280;16191;49.548;8.658;2023-01-29T10:36:33;101686.53;;;1.07;80.68
29121;BME280;16191;49.548;8.658;2023-01-29T10:39:01;101670.00;;;0.96;81.63
29121;BME280;16191;49.548;8.658;2023-01-29T10:42:15;101674.44;;;0.62;80.56
29121;BME280;16191;49.548;8.658;2023-01-29T10:44:49;101667.84;;;1.16;80.63
29121;BME280;16191;49.548;8.658;2023-01-29T10:50:27;101663.53;;;1.15;79.12
29121;BME280;16191;49.548;8.658;2023-01-29T10:55:48;101652.16;;;1.02;78.84
29121;BME280;16191;49.548;8.658;2023-01-29T10:58:33;101649.78;;;0.72;80.09
29121;BME280;16191;49.548;8.658;2023-01-29T11:01:02;101644.69;;;1.16;79.12
29121;BME280;16191;49.548;8.658;2023-01-29T11:03:31;101641.13;;;0.67;79.29
29121;BME280;16191;49.548;8.658;2023-01-29T11:14:01;101625.16;;;1.70;73.77
29121;BME280;16191;49.548;8.658;2023-01-29T11:16:41;101626.22;;;1.83;72.39
29121;BME280;16191;49.548;8.658;2023-01-29T11:19:09;101623.00;;;1.96;71.72
29121;BME280;16191;49.548;8.658;2023-01-29T11:21:57;101616.56;;;2.23;72.07
29121;BME280;16191;49.548;8.658;2023-01-29T11:24:25;101620.09;;;2.29;71.05
29121;BME280;16191;49.548;8.658;2023-01-29T11:26:54;101615.28;;;1.96;71.35
29121;BME280;16191;49.548;8.658;2023-01-29T11:32:00;101601.44;;;1.88;72.78
29121;BME280;16191;49.548;8.658;2023-01-29T11:34:29;101593.41;;;2.24;71.28
29121;BME280;16191;49.548;8.658;2023-01-29T11:37:03;101580.00;;;1.89;72.03
29121;BME280;16191;49.548;8.658;2023-01-29T11:39:31;101582.94;;;2.14;71.45
29121;BME280;16191;49.548;8.658;2023-01-29T11:42:03;101574.81;;;1.88;71.25
29121;BME280;16191;49.548;8.658;2023-01-29T11:44:32;101561.53;;;1.62;71.84
29121;BME280;16191;49.548;8.658;2023-01-29T11:47:11;101560.38;;;1.97;70.55
29121;BME280;16191;49.548;8.658;2023-01-29T11:49:40;101553.50;;;1.98;70.61
29121;BME280;16191;49.548;8.658;2023-01-29T11:52:10;101546.06;;;2.15;71.09
29121;BME280;16191;49.548;8.658;2023-01-29T11:55:00;101538.38;;;2.19;70.26
29121;BME280;16191;49.548;8.658;2023-01-29T11:57:33;101537.63;;;2.26;69.99
29121;BME280;16191;49.548;8.658;2023-01-29T12:00:04;101540.72;;;2.02;69.62
29121;BME280;16191;49.548;8.658;2023-01-29T12:02:37;101542.34;;;1.97;71.35
29121;BME280;16191;49.548;8.658;2023-01-29T12:05:16;101539.63;;;2.47;70.54
29121;BME280;16191;49.548;8.658;2023-01-29T12:07:46;101539.44;;;2.33;68.76
29121;BME280;16191;49.548;8.658;2023-01-29T12:15:47;101515.22;;;2.90;68.24
29121;BME280;16191;49.548;8.658;2023-01-29T12:18:35;101510.91;;;2.89;66.81
29121;BME280;16191;49.548;8.658;2023-01-29T12:21:04;101510.19;;;2.28;67.53
29121;BME280;16191;49.548;8.658;2023-01-29T12:26:54;101499.28;;;3.31;66.02
29121;BME280;16191;49.548;8.658;2023-01-29T12:29:38;101497.66;;;2.56;66.76
29121;BME280;16191;49.548;8.658;2023-01-29T12:35:20;101497.69;;;2.60;67.38
29121;BME280;16191;49.548;8.658;2023-01-29T12:40:40;101503.81;;;2.68;67.86
29121;BME280;16191;49.548;8.658;2023-01-29T12:43:15;101504.72;;;2.72;66.87
29121;BME280;16191;49.548;8.658;2023-01-29T12:45:45;101496.66;;;3.23;67.02
29121;BME280;16191;49.548;8.658;2023-01-29T12:48:18;101504.41;;;2.48;68.65
29121;BME280;16191;49.548;8.658;2023-01-29T12:50:48;101490.53;;;3.15;65.63
29121;BME280;16191;49.548;8.658;2023-01-29T12:53:32;101494.22;;;2.55;66.78
29121;BME280;16191;49.548;8.658;2023-01-29T12:56:08;101488.53;;;2.87;66.32
29121;BME280;16191;49.548;8.658;2023-01-29T12:58:48;101473.34;;;3.14;66.95
29121;BME280;16191;49.548;8.658;2023-01-29T13:01:23;101471.50;;;2.99;64.20
29121;BME280;16191;49.548;8.658;2023-01-29T13:06:29;101466.22;;;3.99;63.80
29121;BME280;16191;49.548;8.658;2023-01-29T13:09:00;101468.09;;;4.38;62.81
29121;BME280;16191;49.548;8.658;2023-01-29T13:11:34;101460.09;;;3.82;62.43
29121;BME280;16191;49.548;8.658;2023-01-29T13:14:13;101454.66;;;3.42;63.17
29121;BME280;16191;49.548;8.658;2023-01-29T13:16:47;101450.25;;;3.31;64.34
29121;BME280;16191;49.548;8.658;2023-01-29T13:19:20;101450.38;;;3.44;64.08
29121;BME280;16191;49.548;8.658;2023-01-29T13:21:50;101444.22;;;3.24;63.73
29121;BME280;16191;49.548;8.658;2023-01-29T13:24:20;101444.25;;;3.33;64.26
29121;BME280;16191;49.548;8.658;2023-01-29T13:26:49;101433.31;;;3.69;63.00
29121;BME280;16191;49.548;8.658;2023-01-29T13:29:24;101439.34;;;3.67;63.21
29121;BME280;16191;49.548;8.658;2023-01-29T13:31:58;101428.41;;;4.18;63.61
29121;BME280;16191;49.548;8.658;2023-01-29T13:37:00;101434.69;;;3.17;65.57
29121;BME280;16191;49.548;8.658;2023-01-29T13:39:34;101435.69;;;3.37;63.46
29121;BME280;16191;49.548;8.658;2023-01-29T13:42:16;101433.22;;;3.53;64.43
29121;BME280;16191;49.548;8.658;2023-01-29T13:44:49;101428.38;;;4.12;63.31
29121;BME280;16191;49.548;8.658;2023-01-29T13:47:24;101428.19;;;3.72;63.22
29121;BME280;16191;49.548;8.658;2023-01-29T13:49:56;101417.06;;;3.83;62.56
29121;BME280;16191;49.548;8.658;2023-01-29T13:52:34;101409.69;;;3.10;64.94
29121;BME280;16191;49.548;8.658;2023-01-29T13:55:46;101413.16;;;3.14;65.83
29121;BME280;16191;49.548;8.658;2023-01-29T13:58:01;101410.53;;;3.10;65.60
29121;BME280;16191;49.548;8.658;2023-01-29T14:08:35;101399.88;;;2.69;67.26
29121;BME280;16191;49.548;8.658;2023-01-29T14:13:48;101405.13;;;2.83;67.35
29121;BME280;16191;49.548;8.658;2023-01-29T14:18:55;101399.19;;;2.89;68.89
29121;BME280;16191;49.548;8.658;2023-01-29T14:21:33;101402.25;;;2.50;68.54
29121;BME280;16191;49.548;8.658;2023-01-29T14:26:43;101401.69;;;2.83;68.71
29121;BME280;16191;49.548;8.658;2023-01-29T14:31:58;101393.00;;;3.94;65.54
29121;BME280;16191;49.548;8.658;2023-01-29T14:34:30;101389.34;;;3.53;64.01
29121;BME280;16191;49.548;8.658;2023-01-29T14:37:14;101385.25;;;3.94;64.19
29121;BME280;16191;49.548;8.658;2023-01-29T14:39:49;101377.69;;;4.57;62.69
29121;BME280;16191;49.548;8.658;2023-01-29T14:42:23;101388.84;;;4.28;61.86
29121;BME280;16191;49.548;8.658;2023-01-29T14:55:57;101375.16;;;4.81;60.58
29121;BME280;16191;49.548;8.658;2023-01-29T14:58:52;101379.28;;;4.04;62.04
29121;BME280;16191;49.548;8.658;2023-01-29T15:01:30;101378.59;;;4.85;60.60
29121;BME280;16191;49.548;8.658;2023-01-29T15:06:43;101377.75;;;5.13;59.81
29121;BME280;16191;49.548;8.658;2023-01-29T15:09:36;101383.75;;;5.38;59.83
29121;BME280;16191;49.548;8.658;2023-01-29T15:15:06;101376.88;;;4.71;58.52
29121;BME280;16191;49.548;8.658;2023-01-29T15:20:43;101376.88;;;5.12;58.44
29121;BME280;16191;49.548;8.658;2023-01-29T15:23:32;101369.13;;;5.15;58.79
29121;BME280;16191;49.548;8.658;2023-01-29T15:26:01;101368.25;;;5.23;58.36